sensor_id;sensor_type;location;lat;lon;timestamp;pressure;altitude;pressure_sealevel;temperature
62930;BMP280;49036;42.782;23.108;2022-12-15T00:02:23;-14034.44;;;-0.08
62930;BMP280;49036;42.782;23.108;2022-12-15T00:05:08;-14034.78;;;-0.07
62930;BMP280;49036;42.782;23.108;2022-12-15T00:07:52;-14034.09;;;-0.09
62930;BMP280;49036;42.782;23.108;2022-12-15T00:10:36;-14034.44;;;-0.08
62930;BMP280;49036;42.782;23.108;2022-12-15T00:13:20;-14034.44;;;-0.08
62930;BMP280;49036;42.782;23.108;2022-12-15T00:16:04;-14036.66;;;-0.01
62930;BMP280;49036;42.782;23.108;2022-12-15T00:18:48;-14038.41;;;0.04
62930;BMP280;49036;42.782;23.108;2022-12-15T00:21:32;-14035.13;;;-0.06
62930;BMP280;49036;42.782;23.108;2022-12-15T00:24:16;-14034.09;;;-0.09
62930;BMP280;49036;42.782;23.108;2022-12-15T00:27:00;-14033.75;;;-0.10
62930;BMP280;49036;42.782;23.108;2022-12-15T00:29:43;-14033.22;;;-0.11
62930;BMP280;49036;42.782;23.108;2022-12-15T00:32:27;-14031.16;;;-0.18
62930;BMP280;49036;42.782;23.108;2022-12-15T00:35:12;-14030.81;;;-0.19
62930;BMP280;49036;42.782;23.108;2022-12-15T00:37:56;-14028.22;;;-0.26
62930;BMP280;49036;42.782;23.108;2022-12-15T00:40:40;-14029.94;;;-0.21
62930;BMP280;49036;42.782;23.108;2022-12-15T00:43:06;-14028.56;;;-0.25
62930;BMP280;49036;42.782;23.108;2022-12-15T00:45:36;-14029.78;;;-0.22
62930;BMP280;49036;42.782;23.108;2022-12-15T00:48:20;-14028.03;;;-0.27
62930;BMP280;49036;42.782;23.108;2022-12-15T00:50:46;-14027.19;;;-0.29
62930;BMP280;49036;42.782;23.108;2022-12-15T00:53:22;-14025.81;;;-0.33
62930;BMP280;49036;42.782;23.108;2022-12-15T00:56:07;-14028.03;;;-0.27
62930;BMP280;49036;42.782;23.108;2022-12-15T00:58:51;-14027.53;;;-0.28
62930;BMP280;49036;42.782;23.108;2022-12-15T01:01:35;-14027.53;;;-0.28
62930;BMP280;49036;42.782;23.108;2022-12-15T01:04:19;-14028.22;;;-0.26
62930;BMP280;49036;42.782;23.108;2022-12-15T01:07:03;-14028.03;;;-0.27
62930;BMP280;49036;42.782;23.108;2022-12-15T01:09:46;-14030.81;;;-0.19
62930;BMP280;49036;42.782;23.108;2022-12-15T01:12:30;-14030.47;;;-0.20
62930;BMP280;49036;42.782;23.108;2022-12-15T01:15:14;-14030.63;;;-0.19
62930;BMP280;49036;42.782;23.108;2022-12-15T01:17:58;-14031.31;;;-0.17
62930;BMP280;49036;42.782;23.108;2022-12-15T01:20:42;-14029.78;;;-0.22
62930;BMP280;49036;42.782;23.108;2022-12-15T01:23:08;-14029.06;;;-0.24
62930;BMP280;49036;42.782;23.108;2022-12-15T01:25:33;-14029.59;;;-0.22
62930;BMP280;49036;42.782;23.108;2022-12-15T01:27:59;-14030.28;;;-0.20
62930;BMP280;49036;42.782;23.108;2022-12-15T01:30:25;-14029.78;;;-0.22
62930;BMP280;49036;42.782;23.108;2022-12-15T01:32:51;-14029.06;;;-0.24
62930;BMP280;49036;42.782;23.108;2022-12-15T01:35:18;-14030.97;;;-0.18
62930;BMP280;49036;42.782;23.108;2022-12-15T01:37:44;-14030.81;;;-0.19
62930;BMP280;49036;42.782;23.108;2022-12-15T01:40:15;-14029.59;;;-0.22
62930;BMP280;49036;42.782;23.108;2022-12-15T01:42:59;-14030.97;;;-0.18
62930;BMP280;49036;42.782;23.108;2022-12-15T01:50:27;-14032.88;;;-0.12
62930;BMP280;49036;42.782;23.108;2022-12-15T01:52:54;-14032.34;;;-0.14
62930;BMP280;49036;42.782;23.108;2022-12-15T01:55:20;-14034.44;;;-0.08
62930;BMP280;49036;42.782;23.108;2022-12-15T01:57:47;-14033.38;;;-0.11
62930;BMP280;49036;42.782;23.108;2022-12-15T02:00:14;-14032.88;;;-0.12
62930;BMP280;49036;42.782;23.108;2022-12-15T02:02:40;-14032.34;;;-0.14
62930;BMP280;49036;42.782;23.108;2022-12-15T02:05:06;-14032.53;;;-0.13
62930;BMP280;49036;42.782;23.108;2022-12-15T02:07:32;-14032.00;;;-0.15
62930;BMP280;49036;42.782;23.108;2022-12-15T02:10:00;-14031.16;;;-0.18
62930;BMP280;49036;42.782;23.108;2022-12-15T02:15:42;-14029.78;;;-0.22
62930;BMP280;49036;42.782;23.108;2022-12-15T02:21:17;-14032.34;;;-0.14
62930;BMP280;49036;42.782;23.108;2022-12-15T02:27:21;-14034.09;;;-0.09
62930;BMP280;49036;42.782;23.108;2022-12-15T02:30:02;-14034.78;;;-0.07
62930;BMP280;49036;42.782;23.108;2022-12-15T02:32:36;-14037.69;;;0.02
62930;BMP280;49036;42.782;23.108;2022-12-15T02:35:20;-14033.75;;;-0.10
62930;BMP280;49036;42.782;23.108;2022-12-15T02:37:48;-14031.31;;;-0.17
62930;BMP280;49036;42.782;23.108;2022-12-15T02:40:14;-14033.22;;;-0.11
62930;BMP280;49036;42.782;23.108;2022-12-15T02:42:43;-14035.63;;;-0.04
62930;BMP280;49036;42.782;23.108;2022-12-15T02:45:12;-14034.44;;;-0.08
62930;BMP280;49036;42.782;23.108;2022-12-15T02:58:45;-14024.06;;;-0.38
62930;BMP280;49036;42.782;23.108;2022-12-15T03:01:19;-14025.13;;;-0.35
62930;BMP280;49036;42.782;23.108;2022-12-15T03:03:47;-14029.06;;;-0.24
62930;BMP280;49036;42.782;23.108;2022-12-15T03:06:14;-14031.84;;;-0.15
62930;BMP280;49036;42.782;23.108;2022-12-15T03:08:40;-14032.00;;;-0.15
62930;BMP280;49036;42.782;23.108;2022-12-15T03:11:06;-14029.44;;;-0.23
62930;BMP280;49036;42.782;23.108;2022-12-15T03:13:31;-14029.06;;;-0.24
62930;BMP280;49036;42.782;23.108;2022-12-15T03:15:59;-14032.19;;;-0.14
62930;BMP280;49036;42.782;23.108;2022-12-15T03:18:24;-14033.56;;;-0.10
62930;BMP280;49036;42.782;23.108;2022-12-15T03:20:50;-14033.38;;;-0.11
62930;BMP280;49036;42.782;23.108;2022-12-15T03:23:15;-14033.56;;;-0.10
62930;BMP280;49036;42.782;23.108;2022-12-15T03:25:44;-14037.34;;;0.01
62930;BMP280;49036;42.782;23.108;2022-12-15T03:28:09;-14037.53;;;0.01
62930;BMP280;49036;42.782;23.108;2022-12-15T03:30:35;-14034.59;;;-0.07
62930;BMP280;49036;42.782;23.108;2022-12-15T03:33:00;-14035.47;;;-0.05
62930;BMP280;49036;42.782;23.108;2022-12-15T03:35:26;-14035.63;;;-0.04
62930;BMP280;49036;42.782;23.108;2022-12-15T03:37:52;-14035.13;;;-0.06
62930;BMP280;49036;42.782;23.108;2022-12-15T03:40:17;-14037.88;;;0.02
62930;BMP280;49036;42.782;23.108;2022-12-15T03:42:43;-14037.34;;;0.01
62930;BMP280;49036;42.782;23.108;2022-12-15T03:45:25;-14035.28;;;-0.05
62930;BMP280;49036;42.782;23.108;2022-12-15T03:47:51;-14034.94;;;-0.06
62930;BMP280;49036;42.782;23.108;2022-12-15T03:50:20;-14036.16;;;-0.03
62930;BMP280;49036;42.782;23.108;2022-12-15T03:52:53;-14040.28;;;0.09
62930;BMP280;49036;42.782;23.108;2022-12-15T03:55:20;-14039.94;;;0.08
62930;BMP280;49036;42.782;23.108;2022-12-15T03:57:46;-14037.53;;;0.01
62930;BMP280;49036;42.782;23.108;2022-12-15T04:00:12;-14038.41;;;0.04
62930;BMP280;49036;42.782;23.108;2022-12-15T04:02:41;-14038.91;;;0.05
62930;BMP280;49036;42.782;23.108;2022-12-15T04:05:08;-14040.97;;;0.12
62930;BMP280;49036;42.782;23.108;2022-12-15T04:07:36;-14037.69;;;0.02
62930;BMP280;49036;42.782;23.108;2022-12-15T04:10:02;-14037.88;;;0.02
62930;BMP280;49036;42.782;23.108;2022-12-15T04:12:28;-14037.53;;;0.01
62930;BMP280;49036;42.782;23.108;2022-12-15T04:14:53;-14038.56;;;0.04
62930;BMP280;49036;42.782;23.108;2022-12-15T04:17:18;-14037.34;;;0.01
62930;BMP280;49036;42.782;23.108;2022-12-15T04:19:44;-14038.22;;;0.03
62930;BMP280;49036;42.782;23.108;2022-12-15T04:22:28;-14039.94;;;0.08
62930;BMP280;49036;42.782;23.108;2022-12-15T04:24:53;-14036.84;;;-0.01
62930;BMP280;49036;42.782;23.108;2022-12-15T04:27:37;-14034.94;;;-0.06
62930;BMP280;49036;42.782;23.108;2022-12-15T04:30:21;-14031.50;;;-0.17
62930;BMP280;49036;42.782;23.108;2022-12-15T04:33:05;-14034.25;;;-0.08
62930;BMP280;49036;42.782;23.108;2022-12-15T04:35:49;-14033.03;;;-0.12
62930;BMP280;49036;42.782;23.108;2022-12-15T04:38:35;-14031.31;;;-0.17
62930;BMP280;49036;42.782;23.108;2022-12-15T04:41:20;-14030.28;;;-0.20
62930;BMP280;49036;42.782;23.108;2022-12-15T04:46:40;-14028.22;;;-0.26
62930;BMP280;49036;42.782;23.108;2022-12-15T04:52:46;-14029.25;;;-0.23
62930;BMP280;49036;42.782;23.108;2022-12-15T04:58:51;-14027.69;;;-0.28
62930;BMP280;49036;42.782;23.108;2022-12-15T05:01:35;-14029.59;;;-0.22
62930;BMP280;49036;42.782;23.108;2022-12-15T05:04:19;-14027.00;;;-0.30
62930;BMP280;49036;42.782;23.108;2022-12-15T05:07:03;-14026.84;;;-0.30
62930;BMP280;49036;42.782;23.108;2022-12-15T05:09:47;-14027.69;;;-0.28
62930;BMP280;49036;42.782;23.108;2022-12-15T05:12:31;-14025.81;;;-0.33
62930;BMP280;49036;42.782;23.108;2022-12-15T05:15:15;-14026.16;;;-0.32
62930;BMP280;49036;42.782;23.108;2022-12-15T05:17:58;-14025.13;;;-0.35
62930;BMP280;49036;42.782;23.108;2022-12-15T05:20:42;-14024.94;;;-0.36
62930;BMP280;49036;42.782;23.108;2022-12-15T05:23:26;-14026.50;;;-0.31
62930;BMP280;49036;42.782;23.108;2022-12-15T05:26:10;-14025.47;;;-0.34
62930;BMP280;49036;42.782;23.108;2022-12-15T05:28:54;-14025.47;;;-0.34
62930;BMP280;49036;42.782;23.108;2022-12-15T05:31:38;-14025.47;;;-0.34
62930;BMP280;49036;42.782;23.108;2022-12-15T05:34:27;-14024.41;;;-0.37
62930;BMP280;49036;42.782;23.108;2022-12-15T05:36:54;-14023.38;;;-0.40
62930;BMP280;49036;42.782;23.108;2022-12-15T05:39:20;-14024.75;;;-0.36
62930;BMP280;49036;42.782;23.108;2022-12-15T05:41:46;-14024.59;;;-0.37
62930;BMP280;49036;42.782;23.108;2022-12-15T05:44:12;-14026.16;;;-0.32
62930;BMP280;49036;42.782;23.108;2022-12-15T05:46:38;-14023.72;;;-0.39
62930;BMP280;49036;42.782;23.108;2022-12-15T05:49:08;-14026.66;;;-0.31
62930;BMP280;49036;42.782;23.108;2022-12-15T05:51:37;-14027.00;;;-0.30
62930;BMP280;49036;42.782;23.108;2022-12-15T05:54:03;-14029.59;;;-0.22
62930;BMP280;49036;42.782;23.108;2022-12-15T05:56:28;-14027.53;;;-0.28
62930;BMP280;49036;42.782;23.108;2022-12-15T05:58:57;-14029.59;;;-0.22
62930;BMP280;49036;42.782;23.108;2022-12-15T06:01:24;-14028.56;;;-0.25
62930;BMP280;49036;42.782;23.108;2022-12-15T06:03:49;-14029.59;;;-0.22
62930;BMP280;49036;42.782;23.108;2022-12-15T06:06:15;-14031.50;;;-0.17
62930;BMP280;49036;42.782;23.108;2022-12-15T06:08:41;-14033.03;;;-0.12
62930;BMP280;49036;42.782;23.108;2022-12-15T06:11:12;-14032.88;;;-0.12
62930;BMP280;49036;42.782;23.108;2022-12-15T06:13:39;-14033.38;;;-0.11
62930;BMP280;49036;42.782;23.108;2022-12-15T06:16:08;-14034.44;;;-0.08
62930;BMP280;49036;42.782;23.108;2022-12-15T06:18:36;-14037.00;;;-0.00
62930;BMP280;49036;42.782;23.108;2022-12-15T06:21:07;-14037.88;;;0.02
62930;BMP280;49036;42.782;23.108;2022-12-15T06:23:33;-14040.63;;;0.11
62930;BMP280;49036;42.782;23.108;2022-12-15T06:26:06;-14040.28;;;0.09
62930;BMP280;49036;42.782;23.108;2022-12-15T06:28:32;-14040.97;;;0.12
62930;BMP280;49036;42.782;23.108;2022-12-15T06:31:02;-14042.72;;;0.17
62930;BMP280;49036;42.782;23.108;2022-12-15T06:33:28;-14044.44;;;0.22
62930;BMP280;49036;42.782;23.108;2022-12-15T06:35:54;-14045.63;;;0.25
62930;BMP280;49036;42.782;23.108;2022-12-15T06:38:20;-14045.81;;;0.26
62930;BMP280;49036;42.782;23.108;2022-12-15T06:40:54;-14044.59;;;0.22
62930;BMP280;49036;42.782;23.108;2022-12-15T06:43:20;-14046.66;;;0.28
62930;BMP280;49036;42.782;23.108;2022-12-15T06:45:48;-14048.91;;;0.35
62930;BMP280;49036;42.782;23.108;2022-12-15T06:48:14;-14048.41;;;0.33
62930;BMP280;49036;42.782;23.108;2022-12-15T06:50:40;-14050.28;;;0.39
62930;BMP280;49036;42.782;23.108;2022-12-15T06:53:06;-14049.59;;;0.37
62930;BMP280;49036;42.782;23.108;2022-12-15T06:55:31;-14050.13;;;0.38
62930;BMP280;49036;42.782;23.108;2022-12-15T06:58:02;-14048.91;;;0.35
62930;BMP280;49036;42.782;23.108;2022-12-15T07:00:28;-14048.06;;;0.32
62930;BMP280;49036;42.782;23.108;2022-12-15T07:02:53;-14048.22;;;0.33
62930;BMP280;49036;42.782;23.108;2022-12-15T07:05:20;-14050.47;;;0.40
62930;BMP280;49036;42.782;23.108;2022-12-15T07:07:45;-14049.59;;;0.37
62930;BMP280;49036;42.782;23.108;2022-12-15T07:10:11;-14051.50;;;0.43
62930;BMP280;49036;42.782;23.108;2022-12-15T07:12:36;-14052.34;;;0.45
62930;BMP280;49036;42.782;23.108;2022-12-15T07:15:02;-14052.34;;;0.45
62930;BMP280;49036;42.782;23.108;2022-12-15T07:17:28;-14056.50;;;0.57
62930;BMP280;49036;42.782;23.108;2022-12-15T07:19:54;-14057.53;;;0.60
62930;BMP280;49036;42.782;23.108;2022-12-15T07:22:20;-14053.22;;;0.48
62930;BMP280;49036;42.782;23.108;2022-12-15T07:24:46;-14053.22;;;0.48
62930;BMP280;49036;42.782;23.108;2022-12-15T07:27:13;-14053.03;;;0.47
62930;BMP280;49036;42.782;23.108;2022-12-15T07:29:38;-14056.66;;;0.58
62930;BMP280;49036;42.782;23.108;2022-12-15T07:32:04;-14060.66;;;0.70
62930;BMP280;49036;42.782;23.108;2022-12-15T07:34:30;-14066.16;;;0.86
62930;BMP280;49036;42.782;23.108;2022-12-15T07:36:55;-14071.00;;;1.00
62930;BMP280;49036;42.782;23.108;2022-12-15T07:39:21;-14073.41;;;1.07
62930;BMP280;49036;42.782;23.108;2022-12-15T07:41:46;-14074.63;;;1.11
62930;BMP280;49036;42.782;23.108;2022-12-15T07:44:12;-14075.81;;;1.14
62930;BMP280;49036;42.782;23.108;2022-12-15T07:46:39;-14077.19;;;1.18
62930;BMP280;49036;42.782;23.108;2022-12-15T07:49:04;-14076.84;;;1.17
62930;BMP280;49036;42.782;23.108;2022-12-15T07:51:30;-14078.59;;;1.23
62930;BMP280;49036;42.782;23.108;2022-12-15T07:53:55;-14082.19;;;1.33
62930;BMP280;49036;42.782;23.108;2022-12-15T07:56:21;-14088.94;;;1.53
62930;BMP280;49036;42.782;23.108;2022-12-15T07:58:46;-14092.56;;;1.64
62930;BMP280;49036;42.782;23.108;2022-12-15T08:01:13;-14102.41;;;1.93
62930;BMP280;49036;42.782;23.108;2022-12-15T08:03:39;-14108.25;;;2.10
62930;BMP280;49036;42.782;23.108;2022-12-15T08:06:10;-14109.63;;;2.14
62930;BMP280;49036;42.782;23.108;2022-12-15T08:08:36;-14112.56;;;2.23
62930;BMP280;49036;42.782;23.108;2022-12-15T08:11:07;-14118.97;;;2.42
62930;BMP280;49036;42.782;23.108;2022-12-15T08:13:33;-14122.22;;;2.51
62930;BMP280;49036;42.782;23.108;2022-12-15T08:15:59;-14122.06;;;2.51
62930;BMP280;49036;42.782;23.108;2022-12-15T08:18:24;-14122.75;;;2.53
62930;BMP280;49036;42.782;23.108;2022-12-15T08:20:50;-14125.69;;;2.61
62930;BMP280;49036;42.782;23.108;2022-12-15T08:23:15;-14137.59;;;2.97
62930;BMP280;49036;42.782;23.108;2022-12-15T08:25:41;-14156.41;;;3.52
62930;BMP280;49036;42.782;23.108;2022-12-15T08:28:07;-14176.78;;;4.12
62930;BMP280;49036;42.782;23.108;2022-12-15T08:30:33;-14192.16;;;4.57
62930;BMP280;49036;42.782;23.108;2022-12-15T08:32:59;-14208.06;;;5.04
62930;BMP280;49036;42.782;23.108;2022-12-15T08:35:25;-14217.38;;;5.32
62930;BMP280;49036;42.782;23.108;2022-12-15T08:37:50;-14223.59;;;5.50
62930;BMP280;49036;42.782;23.108;2022-12-15T08:40:16;-14234.47;;;5.82
62930;BMP280;49036;42.782;23.108;2022-12-15T08:42:42;-14251.41;;;6.32
62930;BMP280;49036;42.782;23.108;2022-12-15T08:45:08;-14261.09;;;6.60
62930;BMP280;49036;42.782;23.108;2022-12-15T08:47:34;-14279.22;;;7.14
62930;BMP280;49036;42.782;23.108;2022-12-15T08:49:59;-14286.84;;;7.36
62930;BMP280;49036;42.782;23.108;2022-12-15T08:52:25;-14286.31;;;7.35
62930;BMP280;49036;42.782;23.108;2022-12-15T08:54:50;-14287.00;;;7.37
62930;BMP280;49036;42.782;23.108;2022-12-15T08:57:16;-14295.47;;;7.61
62930;BMP280;49036;42.782;23.108;2022-12-15T08:59:42;-14293.91;;;7.57
62930;BMP280;49036;42.782;23.108;2022-12-15T09:02:09;-14290.63;;;7.47
62930;BMP280;49036;42.782;23.108;2022-12-15T09:04:36;-14292.03;;;7.51
62930;BMP280;49036;42.782;23.108;2022-12-15T09:07:02;-14287.88;;;7.39
62930;BMP280;49036;42.782;23.108;2022-12-15T09:09:27;-14290.13;;;7.46
62930;BMP280;49036;42.782;23.108;2022-12-15T09:11:53;-14294.28;;;7.58
62930;BMP280;49036;42.782;23.108;2022-12-15T09:14:18;-14300.16;;;7.75
62930;BMP280;49036;42.782;23.108;2022-12-15T09:16:44;-14300.84;;;7.77
62930;BMP280;49036;42.782;23.108;2022-12-15T09:19:09;-14302.75;;;7.83
62930;BMP280;49036;42.782;23.108;2022-12-15T09:21:35;-14313.09;;;8.13
62930;BMP280;49036;42.782;23.108;2022-12-15T09:24:01;-14293.56;;;7.56
62930;BMP280;49036;42.782;23.108;2022-12-15T09:26:32;-14275.78;;;7.04
62930;BMP280;49036;42.782;23.108;2022-12-15T09:28:59;-14272.50;;;6.94
62930;BMP280;49036;42.782;23.108;2022-12-15T09:31:28;-14255.22;;;6.43
62930;BMP280;49036;42.782;23.108;2022-12-15T09:33:55;-14271.63;;;6.91
62930;BMP280;49036;42.782;23.108;2022-12-15T09:36:21;-14263.84;;;6.68
62930;BMP280;49036;42.782;23.108;2022-12-15T09:38:47;-14281.47;;;7.20
62930;BMP280;49036;42.782;23.108;2022-12-15T09:43:51;-14293.22;;;7.55
62930;BMP280;49036;42.782;23.108;2022-12-15T09:52:02;-14310.69;;;8.06
62930;BMP280;49036;42.782;23.108;2022-12-15T09:54:31;-14313.44;;;8.14
62930;BMP280;49036;42.782;23.108;2022-12-15T09:57:02;-14330.75;;;8.65
62930;BMP280;49036;42.782;23.108;2022-12-15T09:59:53;-14341.09;;;8.96
62930;BMP280;49036;42.782;23.108;2022-12-15T10:07:36;-14313.28;;;8.14
62930;BMP280;49036;42.782;23.108;2022-12-15T10:10:23;-14319.66;;;8.33
62930;BMP280;49036;42.782;23.108;2022-12-15T10:12:52;-14329.00;;;8.60
62930;BMP280;49036;42.782;23.108;2022-12-15T10:15:22;-14316.91;;;8.25
62930;BMP280;49036;42.782;23.108;2022-12-15T10:18:00;-14313.28;;;8.14
62930;BMP280;49036;42.782;23.108;2022-12-15T10:20:29;-14326.25;;;8.52
62930;BMP280;49036;42.782;23.108;2022-12-15T10:22:56;-14331.25;;;8.67
62930;BMP280;49036;42.782;23.108;2022-12-15T10:25:29;-14353.56;;;9.32
62930;BMP280;49036;42.782;23.108;2022-12-15T10:30:51;-14358.91;;;9.48
62930;BMP280;49036;42.782;23.108;2022-12-15T10:33:22;-14338.69;;;8.89
62930;BMP280;49036;42.782;23.108;2022-12-15T10:35:53;-14317.44;;;8.26
62930;BMP280;49036;42.782;23.108;2022-12-15T10:40:52;-14286.31;;;7.35
62930;BMP280;49036;42.782;23.108;2022-12-15T10:43:39;-14270.25;;;6.87
62930;BMP280;49036;42.782;23.108;2022-12-15T10:48:34;-14284.06;;;7.28
62930;BMP280;49036;42.782;23.108;2022-12-15T10:53:43;-14307.75;;;7.98
62930;BMP280;49036;42.782;23.108;2022-12-15T10:56:18;-14326.75;;;8.53
62930;BMP280;49036;42.782;23.108;2022-12-15T10:58:47;-14323.66;;;8.44
62930;BMP280;49036;42.782;23.108;2022-12-15T11:01:19;-14324.19;;;8.46
62930;BMP280;49036;42.782;23.108;2022-12-15T11:03:45;-14325.56;;;8.50
62930;BMP280;49036;42.782;23.108;2022-12-15T11:06:18;-14330.91;;;8.66
62930;BMP280;49036;42.782;23.108;2022-12-15T11:08:44;-14328.31;;;8.58
62930;BMP280;49036;42.782;23.108;2022-12-15T11:11:33;-14319.84;;;8.33
62930;BMP280;49036;42.782;23.108;2022-12-15T11:14:28;-14306.72;;;7.95
62930;BMP280;49036;42.782;23.108;2022-12-15T11:17:05;-14308.25;;;7.99
62930;BMP280;49036;42.782;23.108;2022-12-15T11:19:36;-14295.81;;;7.63
62930;BMP280;49036;42.782;23.108;2022-12-15T11:25:32;-14265.41;;;6.73
62930;BMP280;49036;42.782;23.108;2022-12-15T11:28:10;-14251.75;;;6.33
62930;BMP280;49036;42.782;23.108;2022-12-15T11:30:44;-14252.78;;;6.36
62930;BMP280;49036;42.782;23.108;2022-12-15T11:33:12;-14253.47;;;6.38
62930;BMP280;49036;42.782;23.108;2022-12-15T11:38:34;-14275.44;;;7.02
62930;BMP280;49036;42.782;23.108;2022-12-15T11:44:10;-14281.66;;;7.21
62930;BMP280;49036;42.782;23.108;2022-12-15T11:46:51;-14287.34;;;7.38
62930;BMP280;49036;42.782;23.108;2022-12-15T11:49:38;-14277.16;;;7.08
62930;BMP280;49036;42.782;23.108;2022-12-15T11:54:54;-14298.41;;;7.70
62930;BMP280;49036;42.782;23.108;2022-12-15T12:00:07;-14311.56;;;8.09
62930;BMP280;49036;42.782;23.108;2022-12-15T12:03:01;-14320.19;;;8.34
62930;BMP280;49036;42.782;23.108;2022-12-15T12:06:04;-14324.69;;;8.47
62930;BMP280;49036;42.782;23.108;2022-12-15T12:09:04;-14336.63;;;8.82
62930;BMP280;49036;42.782;23.108;2022-12-15T12:11:42;-14339.22;;;8.90
62930;BMP280;49036;42.782;23.108;2022-12-15T12:20:02;-14341.63;;;8.97
62930;BMP280;49036;42.782;23.108;2022-12-15T12:22:39;-14342.31;;;8.99
62930;BMP280;49036;42.782;23.108;2022-12-15T12:25:14;-14348.72;;;9.18
62930;BMP280;49036;42.782;23.108;2022-12-15T12:28:02;-14347.69;;;9.15
62930;BMP280;49036;42.782;23.108;2022-12-15T12:30:38;-14359.97;;;9.51
62930;BMP280;49036;42.782;23.108;2022-12-15T12:35:50;-14353.22;;;9.31
62930;BMP280;49036;42.782;23.108;2022-12-15T12:38:23;-14354.59;;;9.35
62930;BMP280;49036;42.782;23.108;2022-12-15T12:48:47;-14364.63;;;9.65
62930;BMP280;49036;42.782;23.108;2022-12-15T12:51:33;-14360.66;;;9.53
62930;BMP280;49036;42.782;23.108;2022-12-15T12:53:59;-14368.97;;;9.77
62930;BMP280;49036;42.782;23.108;2022-12-15T12:56:38;-14374.50;;;9.94
62930;BMP280;49036;42.782;23.108;2022-12-15T13:02:10;-14340.78;;;8.95
62930;BMP280;49036;42.782;23.108;2022-12-15T13:04:49;-14323.66;;;8.44
62930;BMP280;49036;42.782;23.108;2022-12-15T13:07:49;-14308.97;;;8.01
62930;BMP280;49036;42.782;23.108;2022-12-15T13:10:19;-14310.69;;;8.06
62930;BMP280;49036;42.782;23.108;2022-12-15T13:12:49;-14302.03;;;7.81
62930;BMP280;49036;42.782;23.108;2022-12-15T13:17:57;-14265.94;;;6.75
62930;BMP280;49036;42.782;23.108;2022-12-15T13:20:30;-14261.25;;;6.61
62930;BMP280;49036;42.782;23.108;2022-12-15T13:25:45;-14254.69;;;6.42
62930;BMP280;49036;42.782;23.108;2022-12-15T13:28:26;-14235.00;;;5.84
62930;BMP280;49036;42.782;23.108;2022-12-15T13:31:18;-14229.97;;;5.69
62930;BMP280;49036;42.782;23.108;2022-12-15T13:46:50;-14205.13;;;4.96
62930;BMP280;49036;42.782;23.108;2022-12-15T13:49:25;-14201.84;;;4.86
62930;BMP280;49036;42.782;23.108;2022-12-15T13:51:59;-14201.47;;;4.85
62930;BMP280;49036;42.782;23.108;2022-12-15T13:54:35;-14198.88;;;4.77
62930;BMP280;49036;42.782;23.108;2022-12-15T13:57:16;-14201.66;;;4.85
62930;BMP280;49036;42.782;23.108;2022-12-15T13:59:48;-14195.09;;;4.66
62930;BMP280;49036;42.782;23.108;2022-12-15T14:02:27;-14176.78;;;4.12
62930;BMP280;49036;42.782;23.108;2022-12-15T14:07:43;-14165.56;;;3.79
62930;BMP280;49036;42.782;23.108;2022-12-15T14:10:19;-14168.69;;;3.88
62930;BMP280;49036;42.782;23.108;2022-12-15T14:12:47;-14167.97;;;3.86
62930;BMP280;49036;42.782;23.108;2022-12-15T14:15:16;-14168.16;;;3.87
62930;BMP280;49036;42.782;23.108;2022-12-15T14:17:47;-14166.78;;;3.83
62930;BMP280;49036;42.782;23.108;2022-12-15T14:20:20;-14163.50;;;3.73
62930;BMP280;49036;42.782;23.108;2022-12-15T14:22:46;-14144.34;;;3.16
62930;BMP280;49036;42.782;23.108;2022-12-15T14:25:13;-14136.22;;;2.93
62930;BMP280;49036;42.782;23.108;2022-12-15T14:27:40;-14130.88;;;2.77
62930;BMP280;49036;42.782;23.108;2022-12-15T14:30:19;-14136.41;;;2.93
62930;BMP280;49036;42.782;23.108;2022-12-15T14:32:51;-14124.81;;;2.59
62930;BMP280;49036;42.782;23.108;2022-12-15T14:35:45;-14126.03;;;2.63
62930;BMP280;49036;42.782;23.108;2022-12-15T14:38:15;-14121.72;;;2.50
62930;BMP280;49036;42.782;23.108;2022-12-15T14:40:43;-14119.31;;;2.43
62930;BMP280;49036;42.782;23.108;2022-12-15T14:43:19;-14114.47;;;2.28
62930;BMP280;49036;42.782;23.108;2022-12-15T14:48:35;-14097.03;;;1.77
62930;BMP280;49036;42.782;23.108;2022-12-15T14:51:02;-14095.16;;;1.71
62930;BMP280;49036;42.782;23.108;2022-12-15T14:53:36;-14089.09;;;1.54
62930;BMP280;49036;42.782;23.108;2022-12-15T14:56:27;-14084.44;;;1.40
62930;BMP280;49036;42.782;23.108;2022-12-15T15:01:38;-14083.06;;;1.36
62930;BMP280;49036;42.782;23.108;2022-12-15T15:04:24;-14082.38;;;1.34
62930;BMP280;49036;42.782;23.108;2022-12-15T15:07:14;-14086.53;;;1.46
62930;BMP280;49036;42.782;23.108;2022-12-15T15:09:41;-14086.69;;;1.46
62930;BMP280;49036;42.782;23.108;2022-12-15T15:12:16;-14090.84;;;1.59
62930;BMP280;49036;42.782;23.108;2022-12-15T15:14:43;-14092.03;;;1.62
62930;BMP280;49036;42.782;23.108;2022-12-15T15:17:14;-14085.66;;;1.43
62930;BMP280;49036;42.782;23.108;2022-12-15T15:19:56;-14086.34;;;1.45
62930;BMP280;49036;42.782;23.108;2022-12-15T15:24:50;-14082.38;;;1.34
62930;BMP280;49036;42.782;23.108;2022-12-15T15:27:25;-14072.03;;;1.03
62930;BMP280;49036;42.782;23.108;2022-12-15T15:30:10;-14069.09;;;0.95
62930;BMP280;49036;42.782;23.108;2022-12-15T15:32:56;-14073.75;;;1.08
62930;BMP280;49036;42.782;23.108;2022-12-15T15:35:27;-14068.06;;;0.91
62930;BMP280;49036;42.782;23.108;2022-12-15T15:38:02;-14064.44;;;0.81
62930;BMP280;49036;42.782;23.108;2022-12-15T15:40:29;-14071.16;;;1.01
62930;BMP280;49036;42.782;23.108;2022-12-15T15:42:54;-14072.53;;;1.05
62930;BMP280;49036;42.782;23.108;2022-12-15T15:45:20;-14081.16;;;1.30
62930;BMP280;49036;42.782;23.108;2022-12-15T15:47:48;-14074.28;;;1.10
62930;BMP280;49036;42.782;23.108;2022-12-15T15:50:24;-14078.25;;;1.22
62930;BMP280;49036;42.782;23.108;2022-12-15T15:52:51;-14077.56;;;1.19
62930;BMP280;49036;42.782;23.108;2022-12-15T15:55:25;-14076.84;;;1.17
62930;BMP280;49036;42.782;23.108;2022-12-15T15:57:51;-14078.75;;;1.23
62930;BMP280;49036;42.782;23.108;2022-12-15T16:00:19;-14073.91;;;1.09
62930;BMP280;49036;42.782;23.108;2022-12-15T16:02:45;-14070.47;;;0.99
62930;BMP280;49036;42.782;23.108;2022-12-15T16:05:12;-14071.34;;;1.01
62930;BMP280;49036;42.782;23.108;2022-12-15T16:07:38;-14071.00;;;1.00
62930;BMP280;49036;42.782;23.108;2022-12-15T16:10:10;-14065.47;;;0.84
62930;BMP280;49036;42.782;23.108;2022-12-15T16:12:46;-14063.75;;;0.79
62930;BMP280;49036;42.782;23.108;2022-12-15T16:15:34;-14063.91;;;0.79
62930;BMP280;49036;42.782;23.108;2022-12-15T16:17:59;-14060.66;;;0.70
62930;BMP280;49036;42.782;23.108;2022-12-15T16:20:27;-14058.41;;;0.63
62930;BMP280;49036;42.782;23.108;2022-12-15T16:22:56;-14055.47;;;0.54